Time;durP1;ratioP1;P1;durP2;ratioP2;P2;SDS_P1;SDS_P2;PMS_P1;PMS_P2;Temp;Humidity;BMP_temperature;BMP_pressure;BME280_temperature;BME280_humidity;BME280_pressure;Samples;Min_cycle;Max_cycle;Signal;HPM_P1;HPM_P2
2022/09/09 00:02:27;;;;;;;74.27;36.30;;;;;;;14.50;100.00;100887.09;5023153;28;20242;-77
2022/09/09 00:04:58;;;;;;;58.73;36.27;;;;;;;14.52;100.00;100881.09;5019258;28;20199;-75
2022/09/09 00:07:27;;;;;;;73.47;37.60;;;;;;;14.54;100.00;100875.94;5017601;28;20210;-75
2022/09/09 00:10:27;;;;;;;102.43;36.70;;;;;;;14.54;100.00;100875.94;5021882;28;20648;-74
2022/09/09 00:13:20;;;;;;;68.63;36.40;;;;;;;14.56;100.00;100887.09;5016966;28;20710;-76
2022/09/09 00:16:05;;;;;;;64.37;35.57;;;;;;;14.55;100.00;100882.81;5016380;28;20187;-75
2022/09/09 00:18:48;;;;;;;113.17;35.17;;;;;;;14.53;100.00;100885.38;5018046;28;20198;-75
2022/09/09 00:21:15;;;;;;;67.20;35.57;;;;;;;14.52;100.00;100870.78;5017174;28;20186;-75
2022/09/09 00:23:51;;;;;;;62.93;35.93;;;;;;;14.55;100.00;100873.34;5015390;28;20337;-75
2022/09/09 00:26:31;;;;;;;64.87;35.40;;;;;;;14.56;100.00;100869.06;5017132;28;20214;-75
2022/09/09 00:29:11;;;;;;;69.70;35.97;;;;;;;14.55;100.00;100870.75;5022682;28;20712;-75
2022/09/09 00:31:37;;;;;;;78.97;36.23;;;;;;;14.53;100.00;100872.50;5013910;28;20568;-75
2022/09/09 00:34:21;;;;;;;68.23;37.20;;;;;;;14.55;100.00;100869.94;5017118;28;20187;-76
2022/09/09 00:36:49;;;;;;;70.30;34.27;;;;;;;14.50;100.00;100872.47;5004955;28;20186;-75
2022/09/09 00:39:48;;;;;;;68.90;32.80;;;;;;;14.49;100.00;100877.59;5014629;28;20386;-76
2022/09/09 00:42:25;;;;;;;64.13;31.10;;;;;;;14.48;100.00;100870.75;5012924;28;20306;-75
2022/09/09 00:44:58;;;;;;;68.07;31.23;;;;;;;14.41;100.00;100877.59;5013310;28;20174;-75
2022/09/09 00:47:38;;;;;;;53.70;30.33;;;;;;;14.39;100.00;100871.56;5022623;28;20204;-76
2022/09/09 00:50:10;;;;;;;55.33;30.33;;;;;;;14.35;100.00;100872.41;5013844;28;20199;-76
2022/09/09 00:52:55;;;;;;;60.43;32.10;;;;;;;14.36;100.00;100868.97;5015324;28;20226;-76
2022/09/09 00:56:01;;;;;;;58.63;30.80;;;;;;;14.37;100.00;100865.53;5022816;28;20175;-75
2022/09/09 00:58:27;;;;;;;52.20;30.33;;;;;;;14.36;100.00;100868.97;5022355;28;20236;-76
2022/09/09 01:01:12;;;;;;;47.00;30.17;;;;;;;14.34;100.00;100865.53;5017533;28;20665;-76
2022/09/09 01:03:53;;;;;;;47.90;27.57;;;;;;;14.36;100.00;100868.97;5014849;28;20510;-76
2022/09/09 01:06:36;;;;;;;48.33;28.40;;;;;;;14.34;100.00;100872.41;5019012;28;20210;-76
2022/09/09 01:09:23;;;;;;;46.97;26.83;;;;;;;14.33;100.00;100865.53;5026883;28;20193;-75
2022/09/09 01:11:59;;;;;;;50.60;28.77;;;;;;;14.31;100.00;100874.97;5014435;28;20218;-75
2022/09/09 01:14:42;;;;;;;50.90;28.53;;;;;;;14.27;100.00;100868.94;5017330;28;20683;-76
2022/09/09 01:17:15;;;;;;;55.07;28.30;;;;;;;14.23;100.00;100868.91;5020615;28;20194;-75
2022/09/09 01:19:43;;;;;;;50.77;28.63;;;;;;;14.21;100.00;100868.91;5018920;28;20197;-76
2022/09/09 01:22:36;;;;;;;44.67;27.43;;;;;;;14.20;100.00;100864.63;5017595;28;20302;-77
2022/09/09 01:25:49;;;;;;;44.20;28.03;;;;;;;14.18;100.00;100858.53;5023963;28;20234;-75
2022/09/09 01:28:25;;;;;;;48.03;25.37;;;;;;;14.16;100.00;100865.41;5016118;28;20205;-75
2022/09/09 01:30:53;;;;;;;61.73;27.93;;;;;;;14.17;100.00;100861.09;5018729;28;21643;-76
2022/09/09 01:33:22;;;;;;;84.63;27.67;;;;;;;14.14;100.00;100866.25;5015928;28;20207;-77
2022/09/09 01:35:55;;;;;;;44.00;26.30;;;;;;;14.12;100.00;100858.53;5019581;28;20186;-76
2022/09/09 01:38:24;;;;;;;46.17;26.17;;;;;;;14.11;100.00;100858.50;5021536;28;20190;-75
2022/09/09 01:40:52;;;;;;;50.33;27.63;;;;;;;14.05;100.00;100864.47;5018316;28;20660;-75
2022/09/09 01:43:22;;;;;;;40.87;25.83;;;;;;;14.07;100.00;100861.91;5020527;28;20783;-76
2022/09/09 01:45:50;;;;;;;38.70;26.10;;;;;;;14.05;100.00;100861.91;5012968;28;20207;-76
2022/09/09 01:48:18;;;;;;;40.97;24.83;;;;;;;14.05;100.00;100856.75;5013256;28;20608;-76
2022/09/09 01:50:50;;;;;;;43.77;24.57;;;;;;;14.04;100.00;100851.63;5014720;28;20193;-75
2022/09/09 01:53:18;;;;;;;41.90;25.20;;;;;;;14.02;100.00;100856.75;5020742;28;20211;-75
2022/09/09 01:56:02;;;;;;;36.07;23.67;;;;;;;14.01;100.00;100859.31;5017739;28;20178;-76
2022/09/09 01:58:53;;;;;;;33.73;24.10;;;;;;;14.00;100.00;100866.16;5021291;28;20202;-76
2022/09/09 02:01:45;;;;;;;35.97;25.10;;;;;;;14.01;100.00;100859.31;5017594;28;20232;-74
2022/09/09 02:04:38;;;;;;;36.77;25.03;;;;;;;13.97;100.00;100868.75;5014083;28;20626;-76
2022/09/09 02:07:35;;;;;;;47.50;25.83;;;;;;;13.96;100.00;100858.44;5014261;28;20207;-75
2022/09/09 02:10:19;;;;;;;47.10;25.07;;;;;;;13.94;100.00;100867.84;5019356;28;20244;-75
2022/09/09 02:13:01;;;;;;;35.20;24.97;;;;;;;13.94;100.00;100862.69;5025056;28;20218;-76
2022/09/09 02:15:40;;;;;;;46.03;24.70;;;;;;;13.89;100.00;100872.09;5017182;28;20191;-75
2022/09/09 02:18:08;;;;;;;43.90;25.67;;;;;;;13.85;100.00;100873.81;5027805;28;20583;-76
2022/09/09 02:20:38;;;;;;;42.70;25.83;;;;;;;13.84;100.00;100868.66;5023433;28;20189;-75
2022/09/09 02:23:05;;;;;;;37.50;25.30;;;;;;;13.82;100.00;100867.78;5015315;28;20759;-76
2022/09/09 02:25:32;;;;;;;35.67;25.27;;;;;;;13.85;100.00;100865.25;5026292;28;20206;-74
2022/09/09 02:28:09;;;;;;;37.87;24.33;;;;;;;13.81;100.00;100855.78;5024694;28;20186;-75
2022/09/09 02:30:37;;;;;;;30.90;23.67;;;;;;;13.81;100.00;100855.78;5017639;28;20217;-75
2022/09/09 02:33:06;;;;;;;31.23;23.33;;;;;;;13.79;100.00;100855.75;5019983;28;20202;-76
2022/09/09 02:35:49;;;;;;;37.07;22.27;;;;;;;13.79;100.00;100860.91;5020269;28;20183;-74
2022/09/09 02:38:21;;;;;;;32.63;22.23;;;;;;;13.79;100.00;100860.03;5024313;28;20191;-75
2022/09/09 02:41:17;;;;;;;34.13;19.97;;;;;;;13.74;100.00;100857.44;5023105;28;20226;-75
2022/09/09 02:43:42;;;;;;;33.17;20.47;;;;;;;13.72;100.00;100864.28;5039078;28;20282;-77
2022/09/09 02:46:31;;;;;;;32.33;21.23;;;;;;;13.69;100.00;100859.13;5037591;28;20207;-76
2022/09/09 02:49:05;;;;;;;39.73;20.73;;;;;;;13.70;100.00;100860.84;5023926;28;20931;-75
2022/09/09 02:52:00;;;;;;;36.43;21.27;;;;;;;13.69;100.00;100863.41;5008188;28;20579;-75
2022/09/09 02:54:33;;;;;;;44.80;20.53;;;;;;;13.66;100.00;100859.09;5023789;28;20198;-76
2022/09/09 02:57:10;;;;;;;57.20;22.03;;;;;;;13.64;100.00;100865.09;5019671;28;20194;-74
2022/09/09 02:59:38;;;;;;;31.27;20.60;;;;;;;13.59;100.00;100859.03;5021335;28;20553;-75
2022/09/09 03:02:04;;;;;;;44.57;21.83;;;;;;;13.58;100.00;100858.16;5020098;28;20225;-75
2022/09/09 03:04:31;;;;;;;39.37;21.03;;;;;;;13.59;100.00;100859.03;5021388;28;20278;-74
2022/09/09 03:06:58;;;;;;;36.20;21.57;;;;;;;13.56;100.00;100859.88;5021268;28;20281;-76
2022/09/09 03:09:23;;;;;;;45.27;21.03;;;;;;;13.52;100.00;100857.25;5017963;28;20212;-75
2022/09/09 03:11:50;;;;;;;37.13;21.90;;;;;;;13.50;100.00;100859.84;5019179;28;20695;-76
2022/09/09 03:14:16;;;;;;;31.53;21.23;;;;;;;13.50;100.00;100867.56;5011984;28;20284;-75
2022/09/09 03:16:46;;;;;;;35.93;21.47;;;;;;;13.51;100.00;100868.41;5018213;28;20186;-75
2022/09/09 03:19:11;;;;;;;31.70;20.97;;;;;;;13.46;100.00;100860.66;5025210;28;20273;-76
2022/09/09 03:21:36;;;;;;;29.60;21.53;;;;;;;13.47;100.00;100861.50;5020562;28;20651;-75
2022/09/09 03:24:03;;;;;;;28.27;21.20;;;;;;;13.45;100.00;100863.22;5022598;28;20187;-75
2022/09/09 03:26:30;;;;;;;28.53;20.47;;;;;;;13.43;100.00;100867.47;5007724;28;20534;-74
2022/09/09 03:28:56;;;;;;;27.97;20.33;;;;;;;13.40;100.00;100862.31;5022511;28;20549;-75
2022/09/09 03:31:23;;;;;;;28.50;20.67;;;;;;;13.41;100.00;100856.31;5017441;28;20266;-76
2022/09/09 03:33:49;;;;;;;26.63;21.23;;;;;;;13.39;100.00;100856.31;5019347;28;20726;-74
2022/09/09 03:36:17;;;;;;;47.33;21.40;;;;;;;13.35;100.00;100871.72;5018659;28;20180;-75
2022/09/09 03:38:42;;;;;;;32.60;20.93;;;;;;;13.34;100.00;100873.41;5020120;28;20194;-76
2022/09/09 03:41:08;;;;;;;34.40;21.13;;;;;;;13.35;100.00;100864.84;5017953;28;20194;-74
2022/09/09 03:43:34;;;;;;;29.67;20.83;;;;;;;13.37;100.00;100873.44;5019006;28;20860;-75
2022/09/09 03:46:00;;;;;;;29.27;20.83;;;;;;;13.32;100.00;100869.09;5007773;28;20245;-76
2022/09/09 03:48:28;;;;;;;28.87;20.13;;;;;;;13.32;100.00;100871.69;5020846;28;20207;-74
2022/09/09 03:50:55;;;;;;;29.70;20.80;;;;;;;13.32;100.00;100872.56;5016450;28;20253;-74
2022/09/09 03:53:24;;;;;;;28.27;21.13;;;;;;;13.33;100.00;100871.69;5012749;28;20581;-74
2022/09/09 03:55:54;;;;;;;27.23;20.20;;;;;;;13.34;100.00;100872.53;5027371;28;20179;-75
2022/09/09 03:58:23;;;;;;;29.03;21.43;;;;;;;13.32;100.00;100874.25;5018807;28;20191;-75
2022/09/09 04:00:54;;;;;;;25.83;20.80;;;;;;;13.27;100.00;100871.66;5013716;28;20652;-75
2022/09/09 04:03:19;;;;;;;30.40;21.60;;;;;;;13.28;100.00;100883.66;5029536;28;20235;-74
2022/09/09 04:05:48;;;;;;;31.20;20.33;;;;;;;13.28;100.00;100868.22;5020497;28;20243;-76
2022/09/09 04:08:14;;;;;;;31.67;20.47;;;;;;;13.27;100.00;100879.38;5015874;28;20214;-74
2022/09/09 04:10:39;;;;;;;26.10;19.80;;;;;;;13.27;100.00;100870.78;5015512;28;20186;-75
2022/09/09 04:13:05;;;;;;;23.63;19.17;;;;;;;13.24;100.00;100884.47;5017222;28;20245;-74
2022/09/09 04:15:31;;;;;;;25.27;19.33;;;;;;;13.26;100.00;100881.91;5013880;28;20187;-74
2022/09/09 04:17:57;;;;;;;24.13;19.27;;;;;;;13.24;100.00;100879.34;5018585;28;20248;-74
2022/09/09 04:20:22;;;;;;;22.80;18.63;;;;;;;13.26;100.00;100876.78;5013022;28;20191;-75
2022/09/09 04:22:48;;;;;;;26.23;19.10;;;;;;;13.28;100.00;100877.63;5016792;28;20246;-75
2022/09/09 04:25:14;;;;;;;21.33;18.10;;;;;;;13.33;100.00;100886.25;5009746;28;20238;-75
2022/09/09 04:27:39;;;;;;;22.73;18.43;;;;;;;13.36;100.00;100896.59;5011118;28;20198;-75
2022/09/09 04:30:07;;;;;;;22.77;18.20;;;;;;;13.37;100.00;100893.16;5020721;28;20178;-74
2022/09/09 04:32:33;;;;;;;22.47;17.90;;;;;;;13.37;100.00;100901.75;5017586;28;20234;-74
2022/09/09 04:34:59;;;;;;;20.93;17.67;;;;;;;13.37;100.00;100901.75;5013731;28;20213;-75
2022/09/09 04:37:24;;;;;;;22.70;18.63;;;;;;;13.41;100.00;100905.19;5012778;28;20182;-74
2022/09/09 04:39:50;;;;;;;24.10;18.00;;;;;;;13.40;100.00;100899.19;5002611;28;20191;-74
2022/09/09 04:42:17;;;;;;;22.67;17.20;;;;;;;13.45;100.00;100901.81;5015686;28;20213;-75
2022/09/09 04:44:43;;;;;;;21.57;17.90;;;;;;;13.45;100.00;100894.94;5018401;28;20191;-75
2022/09/09 04:47:10;;;;;;;23.10;17.87;;;;;;;13.49;100.00;100898.41;5023370;28;20216;-75
2022/09/09 04:49:36;;;;;;;22.27;17.60;;;;;;;13.51;100.00;100888.97;5016168;28;20278;-74
2022/09/09 04:52:04;;;;;;;20.33;17.27;;;;;;;13.51;100.00;100894.13;5024984;28;20248;-75
2022/09/09 04:54:32;;;;;;;19.83;16.27;;;;;;;13.55;100.00;100899.34;5013728;28;20187;-74
2022/09/09 04:56:58;;;;;;;20.13;16.43;;;;;;;13.58;100.00;100891.63;5015372;28;20206;-74
2022/09/09 04:59:24;;;;;;;21.77;17.50;;;;;;;13.60;100.00;100896.78;5016420;28;20190;-74
2022/09/09 05:01:54;;;;;;;20.60;16.17;;;;;;;13.60;100.00;100891.63;5023752;28;20632;-75
2022/09/09 05:04:21;;;;;;;20.97;17.33;;;;;;;13.63;100.00;100891.66;5014634;28;20185;-76
2022/09/09 05:06:46;;;;;;;19.70;16.83;;;;;;;13.63;100.00;100901.97;4998088;28;20301;-75
2022/09/09 05:09:12;;;;;;;19.97;16.10;;;;;;;13.66;100.00;100905.41;5013023;28;20334;-75
2022/09/09 05:11:38;;;;;;;17.93;15.03;;;;;;;13.66;100.00;100899.38;5013183;28;20227;-75
2022/09/09 05:14:12;;;;;;;18.53;15.20;;;;;;;13.67;100.00;100903.72;5018241;28;20781;-74
2022/09/09 05:16:38;;;;;;;18.27;15.50;;;;;;;13.70;100.00;100901.16;5021032;28;20285;-74
2022/09/09 05:19:03;;;;;;;19.10;16.37;;;;;;;13.73;100.00;100901.19;5005946;28;20278;-77
2022/09/09 05:21:41;;;;;;;19.27;15.20;;;;;;;13.74;100.00;100903.78;5013848;28;20199;-75
2022/09/09 05:24:07;;;;;;;18.80;14.97;;;;;;;13.76;100.00;100909.78;5018410;28;20202;-74
2022/09/09 05:26:33;;;;;;;20.17;15.30;;;;;;;13.80;100.00;100914.09;5017276;28;20558;-74
2022/09/09 05:29:00;;;;;;;17.97;15.40;;;;;;;13.81;100.00;100909.81;5013091;28;20225;-74
2022/09/09 05:31:28;;;;;;;19.37;14.80;;;;;;;13.83;100.00;100908.13;5016755;28;20190;-76
2022/09/09 05:33:53;;;;;;;17.93;14.90;;;;;;;13.86;100.00;100910.72;5024089;28;20193;-75
2022/09/09 05:36:21;;;;;;;16.57;14.50;;;;;;;13.88;100.00;100912.44;5024926;28;20182;-74
2022/09/09 05:38:50;;;;;;;15.53;13.83;;;;;;;13.95;100.00;100910.78;5020168;28;20275;-74
2022/09/09 05:41:17;;;;;;;16.93;14.57;;;;;;;13.98;100.00;100921.97;5022634;28;20178;-74
2022/09/09 05:43:44;;;;;;;16.87;13.70;;;;;;;14.06;100.00;100922.00;5020914;28;20214;-75
2022/09/09 05:46:14;;;;;;;15.67;14.00;;;;;;;14.10;100.00;100919.47;5014802;28;20222;-74
2022/09/09 05:48:42;;;;;;;15.80;13.27;;;;;;;14.13;100.00;100927.19;5019141;28;20253;-74
2022/09/09 05:51:15;;;;;;;14.97;13.37;;;;;;;14.29;100.00;100928.19;5018872;28;20281;-75
2022/09/09 05:53:41;;;;;;;13.80;12.40;;;;;;;14.36;100.00;100935.97;5024293;28;20257;-74
2022/09/09 05:56:18;;;;;;;14.93;12.97;;;;;;;14.33;100.00;100935.09;5003595;28;20319;-75
2022/09/09 05:58:46;;;;;;;14.93;12.17;;;;;;;14.32;100.00;100936.78;5025122;28;20229;-76
2022/09/09 06:01:24;;;;;;;13.63;12.23;;;;;;;14.33;100.00;100933.38;5013457;28;20183;-75
2022/09/09 06:03:54;;;;;;;17.30;12.37;;;;;;;14.36;100.00;100930.81;5019390;28;20183;-75
2022/09/09 06:06:25;;;;;;;13.47;12.10;;;;;;;14.38;100.00;100936.84;5020827;28;20206;-76
2022/09/09 06:08:53;;;;;;;15.53;11.77;;;;;;;14.39;100.00;100935.97;5015534;28;20203;-75
2022/09/09 06:11:22;;;;;;;13.00;11.70;;;;;;;14.38;100.00;100934.28;5024096;28;20186;-75
2022/09/09 06:13:51;;;;;;;11.50;10.40;;;;;;;14.41;100.00;100944.56;5014612;28;20189;-75
2022/09/09 06:16:18;;;;;;;12.33;11.03;;;;;;;14.43;100.00;100947.16;5020078;28;20565;-76
2022/09/09 06:18:45;;;;;;;11.07;9.97;;;;;;;14.43;100.00;100945.47;5025774;28;20193;-75
2022/09/09 06:21:19;;;;;;;13.40;10.97;;;;;;;14.46;100.00;100952.34;5020840;28;20182;-74
2022/09/09 06:23:47;;;;;;;15.10;11.57;;;;;;;14.50;100.00;100951.50;5024487;28;20565;-75
2022/09/09 06:26:19;;;;;;;11.73;10.53;;;;;;;14.51;100.00;100953.22;5022997;28;20210;-74
2022/09/09 06:28:47;;;;;;;13.43;10.93;;;;;;;14.53;100.00;100952.38;5027136;28;20215;-74
2022/09/09 06:31:17;;;;;;;11.67;10.47;;;;;;;14.55;100.00;100950.66;5020329;28;20215;-75
2022/09/09 06:33:44;;;;;;;11.37;9.87;;;;;;;14.63;100.00;100955.84;5026467;28;20272;-75
2022/09/09 06:36:23;;;;;;;12.30;9.97;;;;;;;14.69;100.00;100958.47;5018738;28;20559;-75
2022/09/09 06:38:48;;;;;;;11.07;9.93;;;;;;;14.74;100.00;100956.78;5011250;28;20281;-75
2022/09/09 06:41:16;;;;;;;10.07;9.13;;;;;;;14.78;100.00;100958.50;5024541;28;20262;-74
2022/09/09 06:43:44;;;;;;;9.97;8.97;;;;;;;14.85;100.00;100952.50;5023786;28;20233;-74
2022/09/09 06:46:19;;;;;;;8.43;7.67;;;;;;;14.88;100.00;100949.94;5016490;28;20210;-75
2022/09/09 06:48:45;;;;;;;9.57;7.90;;;;;;;14.97;100.00;100955.97;5024109;28;20244;-75
2022/09/09 06:51:18;;;;;;;10.60;7.30;;;;;;;14.94;100.00;100961.16;5027671;28;20182;-75
2022/09/09 06:53:45;;;;;;;8.47;7.17;;;;;;;15.04;100.00;100956.88;5019686;28;20215;-76
2022/09/09 06:56:21;;;;;;;8.27;7.27;;;;;;;15.21;100.00;100953.50;5019979;28;20600;-72
2022/09/09 06:58:50;;;;;;;8.90;6.43;;;;;;;15.35;100.00;100953.56;5027751;28;20182;-75
2022/09/09 07:01:27;;;;;;;7.93;6.10;;;;;;;15.45;99.26;100952.69;5025688;28;20186;-75
2022/09/09 07:03:57;;;;;;;8.63;6.00;;;;;;;15.55;98.84;100955.31;5019881;28;20220;-75
2022/09/09 07:06:53;;;;;;;8.60;6.00;;;;;;;15.63;98.68;100947.56;5006511;28;20202;-75
2022/09/09 07:09:23;;;;;;;6.20;5.60;;;;;;;15.74;98.42;100948.44;5019178;28;20286;-75
2022/09/09 07:11:52;;;;;;;8.50;5.73;;;;;;;15.91;98.31;100941.53;5015842;28;20301;-75
2022/09/09 07:14:20;;;;;;;5.50;4.70;;;;;;;16.03;98.13;100950.13;5026045;28;20178;-75
2022/09/09 07:16:49;;;;;;;7.27;5.03;;;;;;;16.34;96.81;100949.22;5020676;28;20261;-74
2022/09/09 07:19:16;;;;;;;5.43;4.93;;;;;;;16.89;94.84;100939.56;5027795;28;20244;-76
2022/09/09 07:21:42;;;;;;;6.33;4.80;;;;;;;17.17;94.24;100939.44;5020778;28;20210;-75
2022/09/09 07:24:10;;;;;;;5.97;4.20;;;;;;;17.30;94.28;100948.84;5013145;28;20187;-75
2022/09/09 07:26:39;;;;;;;6.53;4.00;;;;;;;17.47;93.12;100941.00;5020217;28;20206;-76
2022/09/09 07:29:05;;;;;;;4.47;3.33;;;;;;;17.16;92.11;100948.06;5021338;28;20190;-76
2022/09/09 07:31:33;;;;;;;3.83;3.40;;;;;;;17.24;91.91;100948.88;5018850;28;20241;-75
2022/09/09 07:34:00;;;;;;;5.67;3.77;;;;;;;17.05;91.70;100957.63;5015234;28;20232;-74
2022/09/09 07:36:32;;;;;;;4.90;3.60;;;;;;;17.30;90.75;100958.31;5013191;28;20244;-75
2022/09/09 07:39:04;;;;;;;5.43;3.20;;;;;;;17.63;89.16;100958.13;5013681;28;20703;-75
2022/09/09 07:41:43;;;;;;;4.63;3.30;;;;;;;17.86;89.26;100958.81;5022922;28;20631;-76
2022/09/09 07:44:14;;;;;;;4.60;3.30;;;;;;;18.28;88.24;100958.44;5018095;28;20202;-76
2022/09/09 07:46:41;;;;;;;4.20;2.90;;;;;;;17.98;87.79;100961.31;5018926;28;20202;-75
2022/09/09 07:49:09;;;;;;;7.27;3.50;;;;;;;17.71;88.26;100961.53;5016748;28;20186;-75
2022/09/09 07:51:39;;;;;;;3.40;3.10;;;;;;;17.57;89.07;100971.13;5011933;28;20730;-73
2022/09/09 07:54:09;;;;;;;3.77;3.03;;;;;;;17.39;89.54;100966.03;5021633;28;20191;-74
2022/09/09 07:56:37;;;;;;;3.37;2.83;;;;;;;17.36;89.82;100972.09;5022688;28;20562;-74
2022/09/09 07:59:06;;;;;;;4.03;2.83;;;;;;;17.57;89.87;100976.31;5015685;28;20260;-76
2022/09/09 08:01:39;;;;;;;6.33;3.00;;;;;;;17.38;89.17;100978.16;5018278;28;20534;-75
2022/09/09 08:04:09;;;;;;;5.83;2.80;;;;;;;17.22;89.47;100986.00;5014859;28;20184;-75
2022/09/09 08:06:40;;;;;;;3.37;2.87;;;;;;;17.16;90.15;100981.72;5010594;28;20210;-75
2022/09/09 08:09:08;;;;;;;4.03;2.57;;;;;;;17.27;89.76;100985.09;5022253;28;20282;-75
2022/09/09 08:11:36;;;;;;;3.90;2.90;;;;;;;17.52;90.70;100978.06;5018623;28;20659;-74
2022/09/09 08:14:03;;;;;;;7.20;3.07;;;;;;;17.45;89.83;100982.44;5020412;28;20183;-74
2022/09/09 08:16:32;;;;;;;4.63;3.00;;;;;;;17.52;90.61;100983.25;5013291;28;20180;-75
2022/09/09 08:18:59;;;;;;;4.80;2.67;;;;;;;17.45;89.95;100990.19;5015158;28;20187;-75
2022/09/09 08:21:31;;;;;;;3.60;2.40;;;;;;;17.53;89.19;100990.16;5016272;28;20205;-74
2022/09/09 08:23:59;;;;;;;5.83;2.83;;;;;;;17.68;89.78;100988.31;5017239;28;20183;-74
2022/09/09 08:26:31;;;;;;;5.20;3.00;;;;;;;17.70;89.87;100989.19;5013732;28;20279;-75
2022/09/09 08:28:58;;;;;;;4.00;2.80;;;;;;;17.70;89.23;100989.19;5017441;28;20588;-75
2022/09/09 08:31:30;;;;;;;2.97;2.67;;;;;;;17.75;88.90;100989.13;5020453;28;20199;-76
2022/09/09 08:33:59;;;;;;;5.53;2.57;;;;;;;17.78;88.79;100983.94;5016387;28;20190;-75
2022/09/09 08:36:27;;;;;;;5.43;2.83;;;;;;;17.89;88.75;100987.28;5017483;28;20660;-75
2022/09/09 08:38:55;;;;;;;3.10;2.63;;;;;;;17.96;87.27;100989.81;5019234;28;20273;-75
2022/09/09 08:41:46;;;;;;;3.77;2.43;;;;;;;17.94;87.07;100988.13;5002908;28;20270;-74
2022/09/09 08:44:20;;;;;;;5.97;2.73;;;;;;;17.90;87.22;100996.78;5017066;28;20190;-75
2022/09/09 08:47:12;;;;;;;4.80;3.07;;;;;;;18.20;87.58;100991.34;5016251;28;20750;-74
2022/09/09 08:49:38;;;;;;;5.10;2.60;;;;;;;18.29;86.28;100989.50;5014919;28;20195;-74
2022/09/09 08:52:13;;;;;;;3.53;2.30;;;;;;;18.51;84.98;100995.41;5018706;28;20265;-75
2022/09/09 08:54:39;;;;;;;4.40;2.60;;;;;;;18.38;84.96;100984.28;5014780;28;20237;-75
2022/09/09 08:57:14;;;;;;;3.90;2.67;;;;;;;18.53;84.77;101001.44;5016512;28;20179;-75
2022/09/09 08:59:40;;;;;;;3.87;2.40;;;;;;;18.86;84.91;100995.88;5017811;28;20542;-75
2022/09/09 09:02:11;;;;;;;3.70;3.00;;;;;;;18.67;84.06;101000.41;5014387;28;21127;-75
2022/09/09 09:04:48;;;;;;;4.33;2.67;;;;;;;19.06;82.73;100999.06;5017729;28;20277;-74
2022/09/09 09:07:35;;;;;;;4.97;2.30;;;;;;;19.17;81.30;100999.81;5020099;28;20675;-74
2022/09/09 09:10:30;;;;;;;2.80;2.37;;;;;;;19.10;79.98;101004.22;5023407;28;20265;-74
2022/09/09 09:12:58;;;;;;;4.80;2.23;;;;;;;19.79;78.43;101008.47;5022414;28;20269;-75
2022/09/09 09:15:26;;;;;;;3.33;2.45;;;;;;;20.70;75.64;101002.53;5019155;28;20182;-75
2022/09/09 09:17:54;;;;;;;3.03;2.17;;;;;;;20.52;74.63;101002.88;5017892;28;20197;-75
2022/09/09 09:20:51;;;;;;;2.05;1.80;;;;;;;21.17;72.92;101008.56;5017849;28;20674;-74
2022/09/09 09:23:23;;;;;;;3.00;1.77;;;;;;;21.81;69.89;100997.56;5012216;28;20209;-75
2022/09/09 09:25:52;;;;;;;2.88;1.90;;;;;;;22.48;69.81;100999.38;5023273;28;20217;-75
2022/09/09 09:28:24;;;;;;;4.78;2.10;;;;;;;25.33;58.61;100985.59;5023736;28;20207;-75
2022/09/09 09:30:58;;;;;;;5.20;2.60;;;;;;;23.80;60.39;100996.28;5022152;28;20241;-75
2022/09/09 09:33:50;;;;;;;3.05;2.10;;;;;;;22.42;66.63;101002.94;5019118;28;20207;-75
2022/09/09 09:36:17;;;;;;;6.43;2.47;;;;;;;24.95;59.92;100991.41;5017861;28;20652;-75
2022/09/09 09:38:55;;;;;;;4.68;2.30;;;;;;;27.88;49.57;100978.69;5019178;28;20187;-76
2022/09/09 09:41:32;;;;;;;4.82;1.85;;;;;;;30.44;43.33;100968.00;5022017;28;20273;-76
2022/09/09 09:43:58;;;;;;;2.58;1.95;;;;;;;29.57;44.51;100974.88;5023121;28;20186;-76
2022/09/09 09:46:25;;;;;;;2.28;2.05;;;;;;;32.39;38.78;100966.72;5017170;28;20702;-76
2022/09/09 09:49:09;;;;;;;3.30;1.98;;;;;;;34.38;35.76;100961.75;5021353;28;20648;-76
2022/09/09 09:51:36;;;;;;;3.15;1.98;;;;;;;29.71;42.59;100979.38;5004502;28;20296;-75
2022/09/09 09:54:09;;;;;;;3.42;1.98;;;;;;;29.63;44.08;100978.97;5015562;28;20191;-74
2022/09/09 09:56:36;;;;;;;3.00;1.75;;;;;;;34.12;36.51;100960.19;5023470;28;20194;-74
2022/09/09 09:59:04;;;;;;;2.42;1.83;;;;;;;34.25;35.25;100958.28;5034073;28;20173;-73
2022/09/09 10:01:35;;;;;;;4.05;1.92;;;;;;;29.13;44.09;100972.97;5027056;28;20198;-75
2022/09/09 10:04:23;;;;;;;3.22;1.95;;;;;;;27.00;49.63;100978.50;5033109;28;20186;-75
2022/09/09 10:06:51;;;;;;;4.32;1.80;;;;;;;26.19;50.67;100979.47;5033784;28;20296;-73
2022/09/09 10:09:28;;;;;;;2.88;2.17;;;;;;;26.70;50.77;100985.16;5037492;28;20222;-73
2022/09/09 10:12:06;;;;;;;3.30;1.98;;;;;;;25.46;54.78;100988.63;5031104;28;20251;-74
2022/09/09 10:14:47;;;;;;;2.72;2.15;;;;;;;24.46;57.23;100994.09;5028701;28;20199;-76
2022/09/09 10:17:40;;;;;;;4.30;2.20;;;;;;;26.26;54.27;100978.31;5023268;28;20196;-73
2022/09/09 10:20:19;;;;;;;4.28;1.80;;;;;;;26.20;53.69;100978.59;5034954;28;20186;-75
2022/09/09 10:22:50;;;;;;;3.50;2.10;;;;;;;26.36;51.88;100975.25;5025731;28;20284;-74
2022/09/09 10:25:23;;;;;;;4.40;2.08;;;;;;;26.36;51.61;100977.88;5027040;28;20199;-73
2022/09/09 10:27:58;;;;;;;2.92;1.70;;;;;;;25.85;53.53;100979.16;5026174;28;20206;-74
2022/09/09 10:30:26;;;;;;;4.18;2.03;;;;;;;25.51;53.21;100981.44;5027320;28;20271;-73
2022/09/09 10:33:01;;;;;;;1.95;1.45;;;;;;;25.27;54.15;100979.78;5026293;28;20218;-75
2022/09/09 10:35:42;;;;;;;2.22;1.40;;;;;;;25.15;55.10;100974.94;5027008;28;20615;-75
2022/09/09 10:38:52;;;;;;;6.07;1.65;;;;;;;24.97;55.71;100976.50;5040771;28;20184;-73
2022/09/09 10:41:25;;;;;;;2.85;1.55;;;;;;;24.21;58.14;100979.28;5039769;28;20285;-76
2022/09/09 10:44:14;;;;;;;2.53;1.60;;;;;;;23.95;60.09;100989.75;5031947;28;20182;-73
2022/09/09 10:47:13;;;;;;;3.95;2.28;;;;;;;23.67;60.60;100988.91;5034779;28;20253;-75
2022/09/09 10:49:49;;;;;;;2.53;1.90;;;;;;;23.67;60.97;100983.66;5026270;28;20714;-75
2022/09/09 10:52:40;;;;;;;2.97;1.70;;;;;;;24.15;60.75;100977.72;5034655;28;20215;-74
2022/09/09 10:55:17;;;;;;;1.80;1.70;;;;;;;23.88;60.97;100977.72;5041146;28;20225;-75
2022/09/09 10:57:49;;;;;;;4.68;1.95;;;;;;;24.23;60.72;100974.81;5029026;28;20529;-75
2022/09/09 11:00:21;;;;;;;4.47;1.80;;;;;;;24.09;59.48;100967.47;5025023;28;20236;-74
2022/09/09 11:03:07;;;;;;;3.38;1.73;;;;;;;24.64;58.88;100966.41;5032692;28;20728;-73
2022/09/09 11:05:45;;;;;;;4.68;1.90;;;;;;;24.31;58.57;100960.56;5029919;28;20617;-75
2022/09/09 11:08:31;;;;;;;3.88;1.75;;;;;;;24.28;57.94;100960.69;5031822;28;20213;-75
2022/09/09 11:11:09;;;;;;;3.20;1.55;;;;;;;25.24;55.09;100958.88;5028779;28;20197;-75
2022/09/09 11:13:56;;;;;;;3.72;1.42;;;;;;;25.15;55.08;100952.22;5030601;28;20267;-76
2022/09/09 11:16:45;;;;;;;3.42;1.55;;;;;;;25.01;56.09;100954.47;5029136;28;20190;-74
2022/09/09 11:19:19;;;;;;;3.28;1.30;;;;;;;24.48;55.27;100949.47;5030062;28;20191;-75
2022/09/09 11:21:50;;;;;;;2.03;1.30;;;;;;;24.82;55.85;100952.63;5020517;28;20238;-74
2022/09/09 11:24:46;;;;;;;3.35;1.60;;;;;;;25.08;56.65;100961.22;5024387;28;20223;-74
2022/09/09 11:27:44;;;;;;;3.78;1.63;;;;;;;25.00;55.37;100971.13;5026274;28;20336;-74
2022/09/09 11:30:26;;;;;;;4.57;1.60;;;;;;;25.19;56.18;100968.69;5020742;28;20198;-74
2022/09/09 11:32:57;;;;;;;3.80;1.80;;;;;;;25.12;54.43;100970.69;5028785;28;20261;-74
2022/09/09 11:35:37;;;;;;;2.45;1.50;;;;;;;25.35;55.49;100968.06;5019890;28;20245;-74
2022/09/09 11:38:14;;;;;;;3.28;1.50;;;;;;;24.39;57.62;100973.38;5026137;28;20190;-74
2022/09/09 11:40:40;;;;;;;3.33;1.50;;;;;;;23.96;60.06;100979.22;5015836;28;20190;-74